sensor_id;sensor_type;location;lat;lon;timestamp;temperature;humidity
3275;DHT22;1649;53.672;10.064;2022-12-11T00:01:58;-0.80;99.90
3275;DHT22;1649;53.672;10.064;2022-12-11T00:04:24;-0.80;99.90
3275;DHT22;1649;53.672;10.064;2022-12-11T00:06:50;-0.80;99.90
3275;DHT22;1649;53.672;10.064;2022-12-11T00:09:16;-0.80;99.90
3275;DHT22;1649;53.672;10.064;2022-12-11T00:11:42;-0.90;99.90
3275;DHT22;1649;53.672;10.064;2022-12-11T00:14:08;-0.90;99.90
3275;DHT22;1649;53.672;10.064;2022-12-11T00:16:33;-0.90;99.90
3275;DHT22;1649;53.672;10.064;2022-12-11T00:18:59;-0.80;99.90
3275;DHT22;1649;53.672;10.064;2022-12-11T00:21:25;-0.70;99.90
3275;DHT22;1649;53.672;10.064;2022-12-11T00:23:51;-0.70;99.90
3275;DHT22;1649;53.672;10.064;2022-12-11T00:26:17;-0.80;99.90
3275;DHT22;1649;53.672;10.064;2022-12-11T00:28:43;-0.70;99.90
3275;DHT22;1649;53.672;10.064;2022-12-11T00:31:13;-0.80;99.90
3275;DHT22;1649;53.672;10.064;2022-12-11T00:33:39;-0.80;99.90
3275;DHT22;1649;53.672;10.064;2022-12-11T00:36:10;-0.80;99.90
3275;DHT22;1649;53.672;10.064;2022-12-11T00:38:36;-0.70;99.90
3275;DHT22;1649;53.672;10.064;2022-12-11T00:41:01;-0.70;99.90
3275;DHT22;1649;53.672;10.064;2022-12-11T00:43:27;-0.80;99.90
3275;DHT22;1649;53.672;10.064;2022-12-11T00:45:52;-0.80;99.90
3275;DHT22;1649;53.672;10.064;2022-12-11T00:48:18;-0.70;99.90
3275;DHT22;1649;53.672;10.064;2022-12-11T00:50:43;-0.80;99.90
3275;DHT22;1649;53.672;10.064;2022-12-11T00:53:09;-0.80;99.90
3275;DHT22;1649;53.672;10.064;2022-12-11T00:55:39;-0.80;99.90
3275;DHT22;1649;53.672;10.064;2022-12-11T00:58:05;-0.80;99.90
3275;DHT22;1649;53.672;10.064;2022-12-11T01:00:31;-0.70;99.90
3275;DHT22;1649;53.672;10.064;2022-12-11T01:02:57;-0.60;99.90
3275;DHT22;1649;53.672;10.064;2022-12-11T01:05:23;-0.50;99.90
3275;DHT22;1649;53.672;10.064;2022-12-11T01:07:48;-0.50;99.90
3275;DHT22;1649;53.672;10.064;2022-12-11T01:10:14;-0.60;99.90
3275;DHT22;1649;53.672;10.064;2022-12-11T01:12:57;-0.70;99.90
3275;DHT22;1649;53.672;10.064;2022-12-11T01:15:30;-0.80;99.90
3275;DHT22;1649;53.672;10.064;2022-12-11T01:17:56;-1.00;99.90
3275;DHT22;1649;53.672;10.064;2022-12-11T01:20:24;-0.90;99.90
3275;DHT22;1649;53.672;10.064;2022-12-11T01:22:58;-0.90;99.90
3275;DHT22;1649;53.672;10.064;2022-12-11T01:25:25;-0.90;99.90
3275;DHT22;1649;53.672;10.064;2022-12-11T01:27:52;-0.90;99.90
3275;DHT22;1649;53.672;10.064;2022-12-11T01:30:19;-0.90;99.90
3275;DHT22;1649;53.672;10.064;2022-12-11T01:32:47;-0.90;99.90
3275;DHT22;1649;53.672;10.064;2022-12-11T01:35:12;-0.90;99.90
3275;DHT22;1649;53.672;10.064;2022-12-11T01:37:38;-0.90;99.90
3275;DHT22;1649;53.672;10.064;2022-12-11T01:40:05;-0.90;99.90
3275;DHT22;1649;53.672;10.064;2022-12-11T01:42:31;-0.90;99.90
3275;DHT22;1649;53.672;10.064;2022-12-11T01:47:46;-1.20;99.90
3275;DHT22;1649;53.672;10.064;2022-12-11T01:50:12;-1.20;99.90
3275;DHT22;1649;53.672;10.064;2022-12-11T01:52:39;-1.30;99.90
3275;DHT22;1649;53.672;10.064;2022-12-11T01:55:06;-1.40;99.90
3275;DHT22;1649;53.672;10.064;2022-12-11T01:57:33;-1.40;99.90
3275;DHT22;1649;53.672;10.064;2022-12-11T01:59:59;-1.40;99.90
3275;DHT22;1649;53.672;10.064;2022-12-11T02:02:29;-1.40;99.90
3275;DHT22;1649;53.672;10.064;2022-12-11T02:04:55;-1.30;99.90
3275;DHT22;1649;53.672;10.064;2022-12-11T02:07:21;-1.20;99.90
3275;DHT22;1649;53.672;10.064;2022-12-11T02:09:47;-1.10;99.90
3275;DHT22;1649;53.672;10.064;2022-12-11T02:12:29;-1.10;99.90
3275;DHT22;1649;53.672;10.064;2022-12-11T02:15:07;-1.10;99.90
3275;DHT22;1649;53.672;10.064;2022-12-11T02:20:26;-1.10;99.90
3275;DHT22;1649;53.672;10.064;2022-12-11T02:28:30;-1.00;99.90
3275;DHT22;1649;53.672;10.064;2022-12-11T02:31:11;-1.00;99.90
3275;DHT22;1649;53.672;10.064;2022-12-11T02:33:50;-1.00;99.90
3275;DHT22;1649;53.672;10.064;2022-12-11T02:36:17;-1.00;99.90
3275;DHT22;1649;53.672;10.064;2022-12-11T02:38:47;-0.90;99.90
3275;DHT22;1649;53.672;10.064;2022-12-11T02:41:16;-0.90;99.90
3275;DHT22;1649;53.672;10.064;2022-12-11T02:43:43;-1.00;99.90
3275;DHT22;1649;53.672;10.064;2022-12-11T02:46:09;-1.10;99.90
3275;DHT22;1649;53.672;10.064;2022-12-11T02:48:37;-0.90;99.90
3275;DHT22;1649;53.672;10.064;2022-12-11T02:51:05;-0.90;99.90
3275;DHT22;1649;53.672;10.064;2022-12-11T02:53:34;-0.90;99.90
3275;DHT22;1649;53.672;10.064;2022-12-11T02:56:07;-0.90;99.90
3275;DHT22;1649;53.672;10.064;2022-12-11T02:58:36;-0.80;99.90
3275;DHT22;1649;53.672;10.064;2022-12-11T03:01:05;-0.90;99.90
3275;DHT22;1649;53.672;10.064;2022-12-11T03:03:30;-0.90;99.90
3275;DHT22;1649;53.672;10.064;2022-12-11T03:05:56;-0.90;99.90
3275;DHT22;1649;53.672;10.064;2022-12-11T03:08:21;-1.00;99.90
3275;DHT22;1649;53.672;10.064;2022-12-11T03:10:47;-1.10;99.90
3275;DHT22;1649;53.672;10.064;2022-12-11T03:13:16;-0.90;99.90
3275;DHT22;1649;53.672;10.064;2022-12-11T03:15:51;-0.90;99.90
3275;DHT22;1649;53.672;10.064;2022-12-11T03:18:28;-0.80;99.90
3275;DHT22;1649;53.672;10.064;2022-12-11T03:21:20;-0.80;99.90
3275;DHT22;1649;53.672;10.064;2022-12-11T03:23:56;-0.80;99.90
3275;DHT22;1649;53.672;10.064;2022-12-11T03:26:27;-0.80;99.90
3275;DHT22;1649;53.672;10.064;2022-12-11T03:29:14;-0.80;99.90
3275;DHT22;1649;53.672;10.064;2022-12-11T03:31:44;-0.80;99.90
3275;DHT22;1649;53.672;10.064;2022-12-11T03:34:21;-0.80;99.90
3275;DHT22;1649;53.672;10.064;2022-12-11T03:36:47;-0.80;99.90
3275;DHT22;1649;53.672;10.064;2022-12-11T03:39:28;-0.90;99.90
3275;DHT22;1649;53.672;10.064;2022-12-11T03:41:55;-0.90;99.90
3275;DHT22;1649;53.672;10.064;2022-12-11T03:44:22;-0.90;99.90
3275;DHT22;1649;53.672;10.064;2022-12-11T03:46:49;-0.90;99.90
3275;DHT22;1649;53.672;10.064;2022-12-11T03:49:19;-1.00;99.90
3275;DHT22;1649;53.672;10.064;2022-12-11T03:51:47;-0.90;99.90
3275;DHT22;1649;53.672;10.064;2022-12-11T03:54:14;-0.90;99.90
3275;DHT22;1649;53.672;10.064;2022-12-11T03:56:42;-0.90;99.90
3275;DHT22;1649;53.672;10.064;2022-12-11T03:59:08;-0.80;99.90
3275;DHT22;1649;53.672;10.064;2022-12-11T04:01:34;-0.90;99.90
3275;DHT22;1649;53.672;10.064;2022-12-11T04:04:00;-0.90;99.90
3275;DHT22;1649;53.672;10.064;2022-12-11T04:06:25;-1.00;99.90
3275;DHT22;1649;53.672;10.064;2022-12-11T04:08:51;-1.20;99.90
3275;DHT22;1649;53.672;10.064;2022-12-11T04:11:16;-1.20;99.90
3275;DHT22;1649;53.672;10.064;2022-12-11T04:14:07;-1.40;99.90
3275;DHT22;1649;53.672;10.064;2022-12-11T04:16:52;-1.60;99.90
3275;DHT22;1649;53.672;10.064;2022-12-11T04:19:18;-1.70;99.90
3275;DHT22;1649;53.672;10.064;2022-12-11T04:22:03;-1.80;99.90
3275;DHT22;1649;53.672;10.064;2022-12-11T04:24:47;-1.80;99.90
3275;DHT22;1649;53.672;10.064;2022-12-11T04:27:13;-1.70;99.90
3275;DHT22;1649;53.672;10.064;2022-12-11T04:29:59;-1.50;99.90
3275;DHT22;1649;53.672;10.064;2022-12-11T04:32:24;-1.70;99.90
3275;DHT22;1649;53.672;10.064;2022-12-11T04:34:50;-1.70;99.90
3275;DHT22;1649;53.672;10.064;2022-12-11T04:37:15;-1.60;99.90
3275;DHT22;1649;53.672;10.064;2022-12-11T04:39:41;-1.60;99.90
3275;DHT22;1649;53.672;10.064;2022-12-11T04:42:06;-1.50;99.90
3275;DHT22;1649;53.672;10.064;2022-12-11T04:44:32;-1.50;99.90
3275;DHT22;1649;53.672;10.064;2022-12-11T04:46:58;-1.40;99.90
3275;DHT22;1649;53.672;10.064;2022-12-11T04:49:23;-1.40;99.90
3275;DHT22;1649;53.672;10.064;2022-12-11T04:51:49;-1.30;99.90
3275;DHT22;1649;53.672;10.064;2022-12-11T04:54:14;-1.30;99.90
3275;DHT22;1649;53.672;10.064;2022-12-11T04:56:40;-1.20;99.90
3275;DHT22;1649;53.672;10.064;2022-12-11T04:59:05;-1.20;99.90
3275;DHT22;1649;53.672;10.064;2022-12-11T05:01:31;-1.40;99.90
3275;DHT22;1649;53.672;10.064;2022-12-11T05:03:58;-1.50;99.90
3275;DHT22;1649;53.672;10.064;2022-12-11T05:06:24;-1.50;99.90
3275;DHT22;1649;53.672;10.064;2022-12-11T05:08:49;-1.40;99.90
3275;DHT22;1649;53.672;10.064;2022-12-11T05:11:15;-1.50;99.90
3275;DHT22;1649;53.672;10.064;2022-12-11T05:13:42;-1.50;99.90
3275;DHT22;1649;53.672;10.064;2022-12-11T05:16:10;-1.40;99.90
3275;DHT22;1649;53.672;10.064;2022-12-11T05:18:36;-1.40;99.90
3275;DHT22;1649;53.672;10.064;2022-12-11T05:21:04;-1.50;99.90
3275;DHT22;1649;53.672;10.064;2022-12-11T05:23:30;-1.50;99.90
3275;DHT22;1649;53.672;10.064;2022-12-11T05:25:58;-1.50;99.90
3275;DHT22;1649;53.672;10.064;2022-12-11T05:28:25;-1.60;99.90
3275;DHT22;1649;53.672;10.064;2022-12-11T05:30:58;-1.60;99.90
3275;DHT22;1649;53.672;10.064;2022-12-11T05:33:25;-1.60;99.90
3275;DHT22;1649;53.672;10.064;2022-12-11T05:35:51;-1.60;99.90
3275;DHT22;1649;53.672;10.064;2022-12-11T05:38:16;-1.60;99.90
3275;DHT22;1649;53.672;10.064;2022-12-11T05:40:42;-1.50;99.90
3275;DHT22;1649;53.672;10.064;2022-12-11T05:43:07;-1.50;99.90
3275;DHT22;1649;53.672;10.064;2022-12-11T05:45:33;-1.50;99.90
3275;DHT22;1649;53.672;10.064;2022-12-11T05:47:59;-1.60;99.90
3275;DHT22;1649;53.672;10.064;2022-12-11T05:50:24;-1.70;99.90
3275;DHT22;1649;53.672;10.064;2022-12-11T05:52:50;-1.70;99.90
3275;DHT22;1649;53.672;10.064;2022-12-11T05:55:15;-1.80;99.90
3275;DHT22;1649;53.672;10.064;2022-12-11T05:57:41;-1.80;99.90
3275;DHT22;1649;53.672;10.064;2022-12-11T06:00:08;-1.80;99.90
3275;DHT22;1649;53.672;10.064;2022-12-11T06:02:34;-1.80;99.90
3275;DHT22;1649;53.672;10.064;2022-12-11T06:05:00;-1.90;99.90
3275;DHT22;1649;53.672;10.064;2022-12-11T06:07:25;-2.00;99.90
3275;DHT22;1649;53.672;10.064;2022-12-11T06:09:51;-2.00;99.90
3275;DHT22;1649;53.672;10.064;2022-12-11T06:12:16;-2.00;99.90
3275;DHT22;1649;53.672;10.064;2022-12-11T06:14:42;-2.10;99.90
3275;DHT22;1649;53.672;10.064;2022-12-11T06:17:07;-2.20;99.90
3275;DHT22;1649;53.672;10.064;2022-12-11T06:19:33;-2.30;99.90
3275;DHT22;1649;53.672;10.064;2022-12-11T06:21:58;-2.30;99.90
3275;DHT22;1649;53.672;10.064;2022-12-11T06:24:24;-2.30;99.90
3275;DHT22;1649;53.672;10.064;2022-12-11T06:26:49;-2.40;99.90
3275;DHT22;1649;53.672;10.064;2022-12-11T06:29:15;-2.40;99.90
3275;DHT22;1649;53.672;10.064;2022-12-11T06:31:40;-2.50;99.90
3275;DHT22;1649;53.672;10.064;2022-12-11T06:34:08;-2.50;99.90
3275;DHT22;1649;53.672;10.064;2022-12-11T06:36:35;-2.40;99.90
3275;DHT22;1649;53.672;10.064;2022-12-11T06:39:01;-2.40;99.90
3275;DHT22;1649;53.672;10.064;2022-12-11T06:41:26;-2.50;99.90
3275;DHT22;1649;53.672;10.064;2022-12-11T06:43:52;-2.40;99.90
3275;DHT22;1649;53.672;10.064;2022-12-11T06:46:18;-2.50;99.90
3275;DHT22;1649;53.672;10.064;2022-12-11T06:48:45;-2.50;99.90
3275;DHT22;1649;53.672;10.064;2022-12-11T06:51:19;-2.50;99.90
3275;DHT22;1649;53.672;10.064;2022-12-11T06:53:49;-2.60;99.90
3275;DHT22;1649;53.672;10.064;2022-12-11T06:56:15;-2.70;99.90
3275;DHT22;1649;53.672;10.064;2022-12-11T06:58:41;-2.70;99.90
3275;DHT22;1649;53.672;10.064;2022-12-11T07:01:16;-2.60;99.90
3275;DHT22;1649;53.672;10.064;2022-12-11T07:03:42;-2.60;99.90
3275;DHT22;1649;53.672;10.064;2022-12-11T07:06:08;-2.70;99.90
3275;DHT22;1649;53.672;10.064;2022-12-11T07:08:33;-2.70;99.90
3275;DHT22;1649;53.672;10.064;2022-12-11T07:11:08;-2.70;99.90
3275;DHT22;1649;53.672;10.064;2022-12-11T07:13:34;-2.70;99.90
3275;DHT22;1649;53.672;10.064;2022-12-11T07:16:01;-2.70;99.90
3275;DHT22;1649;53.672;10.064;2022-12-11T07:18:29;-2.80;99.90
3275;DHT22;1649;53.672;10.064;2022-12-11T07:20:57;-2.90;99.90
3275;DHT22;1649;53.672;10.064;2022-12-11T07:23:25;-2.90;99.90
3275;DHT22;1649;53.672;10.064;2022-12-11T07:25:50;-2.90;99.90
3275;DHT22;1649;53.672;10.064;2022-12-11T07:28:16;-2.90;99.90
3275;DHT22;1649;53.672;10.064;2022-12-11T07:30:42;-2.90;99.90
3275;DHT22;1649;53.672;10.064;2022-12-11T07:33:07;-2.90;99.90
3275;DHT22;1649;53.672;10.064;2022-12-11T07:35:34;-2.90;99.90
3275;DHT22;1649;53.672;10.064;2022-12-11T07:38:00;-2.90;99.90
3275;DHT22;1649;53.672;10.064;2022-12-11T07:40:25;-3.00;99.90
3275;DHT22;1649;53.672;10.064;2022-12-11T07:42:51;-3.00;99.90
3275;DHT22;1649;53.672;10.064;2022-12-11T07:45:17;-3.00;99.90
3275;DHT22;1649;53.672;10.064;2022-12-11T07:47:42;-3.00;99.90
3275;DHT22;1649;53.672;10.064;2022-12-11T07:50:08;-3.00;99.90
3275;DHT22;1649;53.672;10.064;2022-12-11T07:52:34;-3.10;99.90
3275;DHT22;1649;53.672;10.064;2022-12-11T07:55:00;-3.10;99.90
3275;DHT22;1649;53.672;10.064;2022-12-11T07:57:26;-3.10;99.90
3275;DHT22;1649;53.672;10.064;2022-12-11T07:59:52;-3.10;99.90
3275;DHT22;1649;53.672;10.064;2022-12-11T08:02:17;-3.20;99.90
3275;DHT22;1649;53.672;10.064;2022-12-11T08:04:43;-3.20;99.90
3275;DHT22;1649;53.672;10.064;2022-12-11T08:07:08;-3.10;99.90
3275;DHT22;1649;53.672;10.064;2022-12-11T08:09:34;-3.10;99.90
3275;DHT22;1649;53.672;10.064;2022-12-11T08:11:59;-3.00;99.90
3275;DHT22;1649;53.672;10.064;2022-12-11T08:14:25;-2.90;99.90
3275;DHT22;1649;53.672;10.064;2022-12-11T08:16:50;-2.80;99.90
3275;DHT22;1649;53.672;10.064;2022-12-11T08:19:16;-2.80;99.90
3275;DHT22;1649;53.672;10.064;2022-12-11T08:21:42;-2.80;99.90
3275;DHT22;1649;53.672;10.064;2022-12-11T08:24:08;-2.80;99.90
3275;DHT22;1649;53.672;10.064;2022-12-11T08:26:34;-2.70;99.90
3275;DHT22;1649;53.672;10.064;2022-12-11T08:29:00;-2.40;99.90
3275;DHT22;1649;53.672;10.064;2022-12-11T08:31:26;-2.20;99.90
3275;DHT22;1649;53.672;10.064;2022-12-11T08:33:54;-1.80;99.90
3275;DHT22;1649;53.672;10.064;2022-12-11T08:36:21;-1.50;99.90
3275;DHT22;1649;53.672;10.064;2022-12-11T08:38:48;-1.20;99.90
3275;DHT22;1649;53.672;10.064;2022-12-11T08:41:16;-0.90;99.90
3275;DHT22;1649;53.672;10.064;2022-12-11T08:43:42;-0.60;99.90
3275;DHT22;1649;53.672;10.064;2022-12-11T08:46:08;-0.40;99.90
3275;DHT22;1649;53.672;10.064;2022-12-11T08:48:36;-0.10;99.90
3275;DHT22;1649;53.672;10.064;2022-12-11T08:51:04;0.10;99.90
3275;DHT22;1649;53.672;10.064;2022-12-11T08:53:30;0.40;99.90
3275;DHT22;1649;53.672;10.064;2022-12-11T08:56:08;0.60;99.90
3275;DHT22;1649;53.672;10.064;2022-12-11T08:58:34;0.80;99.90
3275;DHT22;1649;53.672;10.064;2022-12-11T09:01:05;0.90;99.90
3275;DHT22;1649;53.672;10.064;2022-12-11T09:03:30;1.10;99.90
3275;DHT22;1649;53.672;10.064;2022-12-11T09:05:56;1.10;99.90
3275;DHT22;1649;53.672;10.064;2022-12-11T09:08:21;1.30;99.90
3275;DHT22;1649;53.672;10.064;2022-12-11T09:10:47;1.40;99.90
3275;DHT22;1649;53.672;10.064;2022-12-11T09:13:12;1.50;99.90
3275;DHT22;1649;53.672;10.064;2022-12-11T09:15:41;1.70;99.90
3275;DHT22;1649;53.672;10.064;2022-12-11T09:18:07;1.60;99.90
3275;DHT22;1649;53.672;10.064;2022-12-11T09:20:33;1.30;99.90
3275;DHT22;1649;53.672;10.064;2022-12-11T09:22:59;1.30;99.90
3275;DHT22;1649;53.672;10.064;2022-12-11T09:25:25;1.30;99.90
3275;DHT22;1649;53.672;10.064;2022-12-11T09:27:50;1.20;99.90
3275;DHT22;1649;53.672;10.064;2022-12-11T09:30:16;1.20;99.90
3275;DHT22;1649;53.672;10.064;2022-12-11T09:32:41;1.40;99.90
3275;DHT22;1649;53.672;10.064;2022-12-11T09:35:08;1.50;99.90
3275;DHT22;1649;53.672;10.064;2022-12-11T09:37:33;1.40;99.90
3275;DHT22;1649;53.672;10.064;2022-12-11T09:39:59;1.40;99.90
3275;DHT22;1649;53.672;10.064;2022-12-11T09:45:13;1.20;99.90
3275;DHT22;1649;53.672;10.064;2022-12-11T09:47:44;1.10;99.90
3275;DHT22;1649;53.672;10.064;2022-12-11T09:50:16;1.10;99.90
3275;DHT22;1649;53.672;10.064;2022-12-11T09:55:23;1.00;99.90
3275;DHT22;1649;53.672;10.064;2022-12-11T10:00:56;1.10;99.90
3275;DHT22;1649;53.672;10.064;2022-12-11T10:03:30;1.00;99.90
3275;DHT22;1649;53.672;10.064;2022-12-11T10:06:26;1.10;99.90
3275;DHT22;1649;53.672;10.064;2022-12-11T10:12:21;1.30;99.90
3275;DHT22;1649;53.672;10.064;2022-12-11T10:17:27;1.00;99.90
3275;DHT22;1649;53.672;10.064;2022-12-11T10:19:57;1.00;99.90
3275;DHT22;1649;53.672;10.064;2022-12-11T10:22:29;1.00;99.90
3275;DHT22;1649;53.672;10.064;2022-12-11T10:25:03;0.90;99.90
3275;DHT22;1649;53.672;10.064;2022-12-11T10:27:32;0.90;99.90
3275;DHT22;1649;53.672;10.064;2022-12-11T10:30:22;0.80;99.90
3275;DHT22;1649;53.672;10.064;2022-12-11T10:35:38;0.90;99.90
3275;DHT22;1649;53.672;10.064;2022-12-11T10:38:31;0.90;99.90
3275;DHT22;1649;53.672;10.064;2022-12-11T10:41:00;1.00;99.90
3275;DHT22;1649;53.672;10.064;2022-12-11T10:45:58;1.00;99.90
3275;DHT22;1649;53.672;10.064;2022-12-11T10:48:24;0.90;99.90
3275;DHT22;1649;53.672;10.064;2022-12-11T10:51:02;0.80;99.90
3275;DHT22;1649;53.672;10.064;2022-12-11T10:53:29;0.80;99.90
3275;DHT22;1649;53.672;10.064;2022-12-11T10:55:55;0.80;99.90
3275;DHT22;1649;53.672;10.064;2022-12-11T10:58:25;0.70;99.90
3275;DHT22;1649;53.672;10.064;2022-12-11T11:03:32;0.90;99.90
3275;DHT22;1649;53.672;10.064;2022-12-11T11:08:43;0.80;99.90
3275;DHT22;1649;53.672;10.064;2022-12-11T11:11:25;0.90;99.90
3275;DHT22;1649;53.672;10.064;2022-12-11T11:13:51;0.90;99.90
3275;DHT22;1649;53.672;10.064;2022-12-11T11:16:19;0.90;99.90
3275;DHT22;1649;53.672;10.064;2022-12-11T11:18:54;0.80;99.90
3275;DHT22;1649;53.672;10.064;2022-12-11T11:21:24;0.60;99.90
3275;DHT22;1649;53.672;10.064;2022-12-11T11:23:51;0.80;99.90
3275;DHT22;1649;53.672;10.064;2022-12-11T11:26:18;0.90;99.90
3275;DHT22;1649;53.672;10.064;2022-12-11T11:28:56;1.00;99.90
3275;DHT22;1649;53.672;10.064;2022-12-11T11:31:31;0.90;99.90
3275;DHT22;1649;53.672;10.064;2022-12-11T11:34:00;0.80;99.90
3275;DHT22;1649;53.672;10.064;2022-12-11T11:36:32;1.00;99.90
3275;DHT22;1649;53.672;10.064;2022-12-11T11:39:16;0.90;99.90
3275;DHT22;1649;53.672;10.064;2022-12-11T11:41:50;0.80;99.90
3275;DHT22;1649;53.672;10.064;2022-12-11T11:44:27;0.70;99.90
3275;DHT22;1649;53.672;10.064;2022-12-11T11:46:59;0.80;99.90
3275;DHT22;1649;53.672;10.064;2022-12-11T11:49:48;1.00;99.90
3275;DHT22;1649;53.672;10.064;2022-12-11T11:52:28;0.90;99.90
3275;DHT22;1649;53.672;10.064;2022-12-11T11:55:07;0.80;99.90
3275;DHT22;1649;53.672;10.064;2022-12-11T11:58:01;0.80;99.90
3275;DHT22;1649;53.672;10.064;2022-12-11T12:00:28;0.70;99.90
3275;DHT22;1649;53.672;10.064;2022-12-11T12:03:00;0.70;99.90
3275;DHT22;1649;53.672;10.064;2022-12-11T12:05:36;0.70;99.90
3275;DHT22;1649;53.672;10.064;2022-12-11T12:08:25;0.70;99.90
3275;DHT22;1649;53.672;10.064;2022-12-11T12:19:35;0.70;99.90
3275;DHT22;1649;53.672;10.064;2022-12-11T12:22:55;0.60;99.90
3275;DHT22;1649;53.672;10.064;2022-12-11T12:30:17;0.80;99.90
3275;DHT22;1649;53.672;10.064;2022-12-11T12:33:06;0.80;99.90
3275;DHT22;1649;53.672;10.064;2022-12-11T12:35:48;0.90;99.90
3275;DHT22;1649;53.672;10.064;2022-12-11T12:38:40;0.90;99.90
3275;DHT22;1649;53.672;10.064;2022-12-11T12:41:19;0.90;99.90
3275;DHT22;1649;53.672;10.064;2022-12-11T12:44:22;0.90;99.90
3275;DHT22;1649;53.672;10.064;2022-12-11T12:47:31;0.90;99.90
3275;DHT22;1649;53.672;10.064;2022-12-11T12:49:50;0.90;99.90
3275;DHT22;1649;53.672;10.064;2022-12-11T12:52:31;0.70;99.90
3275;DHT22;1649;53.672;10.064;2022-12-11T12:54:59;0.60;99.90
3275;DHT22;1649;53.672;10.064;2022-12-11T13:00:44;0.80;99.90
3275;DHT22;1649;53.672;10.064;2022-12-11T13:03:22;0.80;99.90
3275;DHT22;1649;53.672;10.064;2022-12-11T13:06:02;0.80;99.90
3275;DHT22;1649;53.672;10.064;2022-12-11T13:08:38;0.90;99.90
3275;DHT22;1649;53.672;10.064;2022-12-11T13:11:06;0.90;99.90
3275;DHT22;1649;53.672;10.064;2022-12-11T13:13:42;0.90;99.90
3275;DHT22;1649;53.672;10.064;2022-12-11T13:18:46;0.90;99.90
3275;DHT22;1649;53.672;10.064;2022-12-11T13:24:23;0.90;99.90
3275;DHT22;1649;53.672;10.064;2022-12-11T13:26:50;0.90;99.90
3275;DHT22;1649;53.672;10.064;2022-12-11T13:29:34;0.90;99.90
3275;DHT22;1649;53.672;10.064;2022-12-11T13:32:19;0.90;99.90
3275;DHT22;1649;53.672;10.064;2022-12-11T13:34:58;0.70;99.90
3275;DHT22;1649;53.672;10.064;2022-12-11T13:37:33;0.60;99.90
3275;DHT22;1649;53.672;10.064;2022-12-11T13:40:04;0.50;99.90
3275;DHT22;1649;53.672;10.064;2022-12-11T13:42:34;0.70;99.90
3275;DHT22;1649;53.672;10.064;2022-12-11T13:45:01;0.60;99.90
3275;DHT22;1649;53.672;10.064;2022-12-11T13:47:28;0.70;99.90
3275;DHT22;1649;53.672;10.064;2022-12-11T13:52:52;0.80;99.90
3275;DHT22;1649;53.672;10.064;2022-12-11T13:55:27;0.90;99.90
3275;DHT22;1649;53.672;10.064;2022-12-11T13:57:54;1.00;99.90
3275;DHT22;1649;53.672;10.064;2022-12-11T14:00:23;1.00;99.90
3275;DHT22;1649;53.672;10.064;2022-12-11T14:02:50;0.90;99.90
3275;DHT22;1649;53.672;10.064;2022-12-11T14:05:16;0.80;99.90
3275;DHT22;1649;53.672;10.064;2022-12-11T14:07:48;0.70;99.90
3275;DHT22;1649;53.672;10.064;2022-12-11T14:15:24;0.30;99.90
3275;DHT22;1649;53.672;10.064;2022-12-11T14:17:50;0.40;99.90
3275;DHT22;1649;53.672;10.064;2022-12-11T14:20:28;0.40;99.90
3275;DHT22;1649;53.672;10.064;2022-12-11T14:23:17;0.30;99.90
3275;DHT22;1649;53.672;10.064;2022-12-11T14:26:01;0.20;99.90
3275;DHT22;1649;53.672;10.064;2022-12-11T14:28:29;0.20;99.90
3275;DHT22;1649;53.672;10.064;2022-12-11T14:30:59;0.20;99.90
3275;DHT22;1649;53.672;10.064;2022-12-11T14:33:30;0.20;99.90
3275;DHT22;1649;53.672;10.064;2022-12-11T14:35:57;0.20;99.90
3275;DHT22;1649;53.672;10.064;2022-12-11T14:38:32;0.20;99.90
3275;DHT22;1649;53.672;10.064;2022-12-11T14:41:04;0.20;99.90
3275;DHT22;1649;53.672;10.064;2022-12-11T14:43:43;0.20;99.90
3275;DHT22;1649;53.672;10.064;2022-12-11T14:46:17;0.20;99.90
3275;DHT22;1649;53.672;10.064;2022-12-11T14:48:48;0.20;99.90
3275;DHT22;1649;53.672;10.064;2022-12-11T14:51:17;0.20;99.90
3275;DHT22;1649;53.672;10.064;2022-12-11T14:53:48;0.30;99.90
3275;DHT22;1649;53.672;10.064;2022-12-11T14:56:18;0.30;99.90
3275;DHT22;1649;53.672;10.064;2022-12-11T14:58:54;0.40;99.90
3275;DHT22;1649;53.672;10.064;2022-12-11T15:01:24;0.30;99.90
3275;DHT22;1649;53.672;10.064;2022-12-11T15:04:04;0.30;99.90
3275;DHT22;1649;53.672;10.064;2022-12-11T15:06:41;0.30;99.90
3275;DHT22;1649;53.672;10.064;2022-12-11T15:12:24;0.30;99.90
3275;DHT22;1649;53.672;10.064;2022-12-11T15:17:18;0.20;99.90
3275;DHT22;1649;53.672;10.064;2022-12-11T15:20:06;0.30;99.90
3275;DHT22;1649;53.672;10.064;2022-12-11T15:22:32;0.20;99.90
3275;DHT22;1649;53.672;10.064;2022-12-11T15:24:58;0.20;99.90
3275;DHT22;1649;53.672;10.064;2022-12-11T15:27:28;0.20;99.90
3275;DHT22;1649;53.672;10.064;2022-12-11T15:29:55;0.20;99.90
3275;DHT22;1649;53.672;10.064;2022-12-11T15:32:21;0.20;99.90
3275;DHT22;1649;53.672;10.064;2022-12-11T15:34:55;0.20;99.90
3275;DHT22;1649;53.672;10.064;2022-12-11T15:37:30;0.10;99.90
3275;DHT22;1649;53.672;10.064;2022-12-11T15:39:58;0.10;99.90
3275;DHT22;1649;53.672;10.064;2022-12-11T15:42:35;0.10;99.90
3275;DHT22;1649;53.672;10.064;2022-12-11T15:45:02;-0.10;99.90
3275;DHT22;1649;53.672;10.064;2022-12-11T15:47:30;-0.10;99.90
3275;DHT22;1649;53.672;10.064;2022-12-11T15:49:58;-0.10;99.90
3275;DHT22;1649;53.672;10.064;2022-12-11T15:52:24;-0.10;99.90
3275;DHT22;1649;53.672;10.064;2022-12-11T15:54:50;-0.10;99.90
3275;DHT22;1649;53.672;10.064;2022-12-11T15:57:19;-0.10;99.90
3275;DHT22;1649;53.672;10.064;2022-12-11T15:59:45;0.00;99.90
3275;DHT22;1649;53.672;10.064;2022-12-11T16:02:13;-0.10;99.90
3275;DHT22;1649;53.672;10.064;2022-12-11T16:04:39;-0.10;99.90
3275;DHT22;1649;53.672;10.064;2022-12-11T16:07:11;-0.10;99.90
3275;DHT22;1649;53.672;10.064;2022-12-11T16:09:37;-0.10;99.90
3275;DHT22;1649;53.672;10.064;2022-12-11T16:12:03;0.00;99.90
3275;DHT22;1649;53.672;10.064;2022-12-11T16:14:28;-0.10;99.90
3275;DHT22;1649;53.672;10.064;2022-12-11T16:16:54;-0.10;99.90
3275;DHT22;1649;53.672;10.064;2022-12-11T16:19:20;-0.10;99.90
3275;DHT22;1649;53.672;10.064;2022-12-11T16:21:45;-0.10;99.90
3275;DHT22;1649;53.672;10.064;2022-12-11T16:24:10;-0.10;99.90
3275;DHT22;1649;53.672;10.064;2022-12-11T16:26:36;-0.10;99.90
3275;DHT22;1649;53.672;10.064;2022-12-11T16:29:02;-0.20;99.90
3275;DHT22;1649;53.672;10.064;2022-12-11T16:31:27;-0.20;99.90
3275;DHT22;1649;53.672;10.064;2022-12-11T16:33:53;-0.20;99.90
3275;DHT22;1649;53.672;10.064;2022-12-11T16:36:19;-0.10;99.90
3275;DHT22;1649;53.672;10.064;2022-12-11T16:38:46;-0.10;99.90
3275;DHT22;1649;53.672;10.064;2022-12-11T16:41:12;-0.10;99.90
3275;DHT22;1649;53.672;10.064;2022-12-11T16:43:38;0.00;99.90
3275;DHT22;1649;53.672;10.064;2022-12-11T16:46:03;0.00;99.90
3275;DHT22;1649;53.672;10.064;2022-12-11T16:48:29;0.00;99.90
3275;DHT22;1649;53.672;10.064;2022-12-11T16:50:55;0.00;99.90
3275;DHT22;1649;53.672;10.064;2022-12-11T16:53:21;-0.20;99.90
3275;DHT22;1649;53.672;10.064;2022-12-11T16:55:47;-0.10;99.90
3275;DHT22;1649;53.672;10.064;2022-12-11T16:58:13;0.00;99.90
3275;DHT22;1649;53.672;10.064;2022-12-11T17:00:45;0.00;99.90
3275;DHT22;1649;53.672;10.064;2022-12-11T17:03:12;0.00;99.90
3275;DHT22;1649;53.672;10.064;2022-12-11T17:05:38;0.00;99.90
3275;DHT22;1649;53.672;10.064;2022-12-11T17:08:05;0.10;99.90
3275;DHT22;1649;53.672;10.064;2022-12-11T17:10:30;0.10;99.90
3275;DHT22;1649;53.672;10.064;2022-12-11T17:12:56;0.00;99.90
3275;DHT22;1649;53.672;10.064;2022-12-11T17:15:21;0.10;99.90
3275;DHT22;1649;53.672;10.064;2022-12-11T17:17:47;0.10;99.90
3275;DHT22;1649;53.672;10.064;2022-12-11T17:20:13;0.10;99.90